Aérodrome :







RETROUVEZ-NOUS SUR...

 
LOGIN :

S'inscrire | Disclaimer

   EN    FR    IT 

 









Légende :    VFR   VFR Marginal   IFR   IFR Intensif   IFR Très Intensif
Visi : 
Plafond : 
>= 8 km
>= 3000ft
5 à 8 km
1000 à 3000 ft
1500m à 5 km
500 à 1000 ft
800 à 1500m
200 à 500 ft
< 800m
< 200 ft
Symboles :   Orages  Brouillard  Fortes neiges  Fortes précipitations  Vent > 20 kt






- Altitude de l'aérodrome : 58 ft
- Code IATA : POS


TTPP - Piarco Int.

DERNIER METAR :
  • 211900Z 16008KT 9999 -SHRA VCSH BKN018 25/21 Q1011 NOSIG RMK VCSH N SE W

METARs EXPIRÉS :
  • 211800Z 12008KT 9999 VCSH SCT018 SCT040 29/22 Q1011 NOSIG RMK VCSH E SE
  • 211700Z 12010KT 9999 SCT018 SCT040 29/22 Q1012 NOSIG

TAF TAF TTPP
Valide du 21 à 18h jusqu'au 22 à 18h UTC


211600Z 2118/2218 12008KT 9999 SCT018



MET'MAP, la Météo Aéronautique d'un coup d'oeil ! - Copyright ORBIFLY Décembre 2007 - Disclaimer

ORBIFLY MET'MAP TEAM :

Programmation & Développement : Alexandra Zaïnal
Sur une idée originale de : Baudouin d'Aumeries
Assistance à la programmation : Marc-Olivier Méhu
Soutien technique & logistique : Manuel Goepfert

Contact : metmap@orbifly.com




SOURCES & CREDITS :

   NOAA